This demonstration page uses our WeatherBlox Daily Observations layout. Learn more.

38.89511, -77.03637

Hourly Observations for September 4, 2015

Temp ( °F °C ) Dew Point ( °F °C ) Humidity (%) Winds ( mph kmh ) Pressure ( in mb ) Visibility ( mi km ) Precip ( " mm )
12:52 am 00:52 Mostly Cloudy 81 27 70 21 70 70 Calm 29.91 1013 10 16.09344 0 0
1:52 am 01:52 Mostly Cloudy 79 26 70 21 74 74 N 6 9 29.91 1013 10 16.09344 0 0
2:52 am 02:52 Mostly Clear 79 26 70 21 74 74 NW 6 9 29.91 1013 10 16.09344 0 0
3:52 am 03:52 Clear 77 25 70 21 79 79 NNW 6 9 29.91 1013 10 16.09344 0 0
4:52 am 04:52 Clear 75 24 70 21 83 83 N 3 6 29.91 1013 10 16.09344 0 0
5:52 am 05:52 Partly Cloudy 75 24 70 21 83 83 NNW 7 11 29.94 1014 10 16.09344 0 0
6:52 am 06:52 Partly Cloudy 75 24 70 21 83 83 NNW 8 13 29.97 1015 9 14.484096 0 0
7:52 am 07:52 Mostly Cloudy 79 26 70 21 74 74 N 5 7 29.97 1015 9 14.484096 0 0
8:52 am 08:52 Mostly Cloudy 81 27 70 21 70 70 N 8 13 30 1016 10 16.09344 0 0
9:52 am 09:52 Mostly Cloudy 84 29 70 21 62 62 ENE 7 11 30 1016 10 16.09344 0 0
10:52 am 10:52 Mostly Cloudy 86 30 70 21 59 59 ENE 5 7 30.03 1017 9 14.484096 0 0
11:52 am 11:52 Mostly Cloudy 90 32 70 21 52 52 NE 6 9 30.03 1017 9 14.484096 0 0
12:52 pm 12:52 Partly Cloudy 91 33 70 21 49 49 ESE 7 11 30.03 1017 10 16.09344 0 0
1:52 pm 13:52 Mostly Cloudy 91 33 66 19 44 44 E 12 19 30 1016 9 14.484096 0 0
2:10 pm 14:10 Mostly Cloudy 91 33 64 18 41 41 ESE 8 13 30 1016 9 14.484096 0 0
2:52 pm 14:52 Mostly Cloudy 90 32 68 20 49 49 SE 10 17 30 1016 9 14.484096 0 0
3:52 pm 15:52 Mostly Cloudy 88 31 70 21 55 55 SE 8 13 30 1016 9 14.484096 0 0
4:52 pm 16:52 Mostly Cloudy 88 31 70 21 55 55 SE 6 9 30.03 1017 9 14.484096 0 0
5:52 pm 17:52 Cloudy 86 30 72 22 62 62 SE 8 13 30.03 1017 9 14.484096 0 0
6:52 pm 18:52 Cloudy 84 29 72 22 66 66 SE 6 9 30.03 1017 9 14.484096 0 0
7:52 pm 19:52 Mostly Cloudy 84 29 70 21 62 62 E 9 15 30.06 1018 10 16.09344 0 0
8:52 pm 20:52 Mostly Cloudy 82 28 70 21 66 66 ESE 12 19 30.09 1019 10 16.09344 0 0
9:52 pm 21:52 Partly Cloudy 81 27 70 21 70 70 E 9 15 30.12 1020 10 16.09344 0 0
10:52 pm 22:52 Partly Cloudy 79 26 72 22 79 79 E 8 13 30.15 1021 10 16.09344 0 0
11:52 pm 23:52 Mostly Cloudy 77 25 72 22 83 83 E 10 17 30.15 1021 10 16.09344 0 0

Powered by AerisWeather